Time;durP1;ratioP1;P1;durP2;ratioP2;P2;SDS_P1;SDS_P2;PMS_P1;PMS_P2;Temp;Humidity;BMP_temperature;BMP_pressure;BME280_temperature;BME280_humidity;BME280_pressure;Samples;Min_cycle;Max_cycle;Signal;HPM_P1;HPM_P2
2021/06/20 00:04:01;;;;;;;6.03;5.20;;;;;;;;;;20790103;28;20220;-70
2021/06/20 00:14:03;;;;;;;5.23;4.80;;;;;;;;;;20803072;28;20178;-64
2021/06/20 00:24:04;;;;;;;5.70;5.20;;;;;;;;;;20876498;28;20246;-57
2021/06/20 00:34:04;;;;;;;6.57;5.90;;;;;;;;;;20875547;28;20187;-61
2021/06/20 00:44:05;;;;;;;6.00;5.60;;;;;;;;;;20883165;28;20281;-58
2021/06/20 00:54:05;;;;;;;6.53;6.00;;;;;;;;;;20864201;28;20286;-60
2021/06/20 01:04:05;;;;;;;5.93;5.53;;;;;;;;;;20883416;28;20223;-65
2021/06/20 01:14:07;;;;;;;6.97;6.37;;;;;;;;;;20828936;28;20806;-57
2021/06/20 01:24:07;;;;;;;7.20;6.60;;;;;;;;;;20799869;28;20732;-58
2021/06/20 01:34:07;;;;;;;7.57;6.87;;;;;;;;;;20782207;28;20196;-64
2021/06/20 01:44:08;;;;;;;6.67;6.10;;;;;;;;;;20839667;28;20225;-64
2021/06/20 01:54:08;;;;;;;7.20;6.53;;;;;;;;;;20861002;28;20819;-57
2021/06/20 02:04:08;;;;;;;6.50;6.00;;;;;;;;;;20868320;28;20226;-67
2021/06/20 02:14:09;;;;;;;7.40;6.87;;;;;;;;;;20877764;28;20189;-59
2021/06/20 02:24:09;;;;;;;6.97;6.47;;;;;;;;;;20811306;28;20243;-57
2021/06/20 02:34:09;;;;;;;7.77;7.13;;;;;;;;;;20796088;28;20645;-67
2021/06/20 02:44:10;;;;;;;8.33;7.33;;;;;;;;;;20773712;28;20893;-60
2021/06/20 02:54:11;;;;;;;7.90;7.30;;;;;;;;;;20796151;28;20195;-58
2021/06/20 03:04:11;;;;;;;8.50;7.80;;;;;;;;;;20857404;28;20257;-64
2021/06/20 03:14:15;;;;;;;8.47;7.80;;;;;;;;;;20884370;28;20652;-58
2021/06/20 03:24:15;;;;;;;8.43;7.73;;;;;;;;;;20818316;28;20247;-58
2021/06/20 03:34:16;;;;;;;8.57;7.82;;;;;;;;;;20800444;28;20207;-60
2021/06/20 03:44:17;;;;;;;8.50;6.90;;;;;;;;;;20806927;28;20223;-58
2021/06/20 03:54:18;;;;;;;8.27;7.20;;;;;;;;;;20788501;28;20184;-58
2021/06/20 04:04:19;;;;;;;5.70;4.90;;;;;;;;;;20807628;28;20223;-65
2021/06/20 04:14:20;;;;;;;5.10;4.60;;;;;;;;;;20865315;28;20190;-59
2021/06/20 04:24:20;;;;;;;5.93;4.63;;;;;;;;;;20848049;28;20749;-60
2021/06/20 04:34:20;;;;;;;4.97;3.92;;;;;;;;;;20800434;28;20273;-59
2021/06/20 04:54:52;;;;;;;4.10;3.70;;;;;;;;;;20802399;28;20191;-58
2021/06/20 05:04:52;;;;;;;3.72;3.42;;;;;;;;;;20837264;28;20297;-59
2021/06/20 05:14:52;;;;;;;4.53;4.13;;;;;;;;;;20846093;28;20168;-60
2021/06/20 05:24:53;;;;;;;5.25;4.85;;;;;;;;;;20768916;28;20231;-64
2021/06/20 05:34:53;;;;;;;4.47;4.07;;;;;;;;;;20817709;28;20234;-65
2021/06/20 05:44:54;;;;;;;4.00;3.70;;;;;;;;;;20784175;28;20228;-62
2021/06/20 05:54:54;;;;;;;4.43;3.70;;;;;;;;;;20862391;28;20683;-68
2021/06/20 06:04:55;;;;;;;4.43;4.03;;;;;;;;;;20859768;28;20261;-57
2021/06/20 06:14:55;;;;;;;4.07;3.53;;;;;;;;;;20851978;28;20187;-58
2021/06/20 06:24:55;;;;;;;4.00;3.60;;;;;;;;;;20782025;28;20244;-61
2021/06/20 06:34:56;;;;;;;3.90;3.63;;;;;;;;;;20768169;28;20220;-58
2021/06/20 06:44:57;;;;;;;3.93;3.50;;;;;;;;;;20778969;28;20232;-59
2021/06/20 06:54:57;;;;;;;4.05;3.65;;;;;;;;;;20809386;28;20255;-58
2021/06/20 07:04:57;;;;;;;5.57;3.97;;;;;;;;;;20868591;28;20385;-60
2021/06/20 07:15:00;;;;;;;5.32;4.13;;;;;;;;;;20846368;28;20224;-66
2021/06/20 07:25:01;;;;;;;4.57;3.88;;;;;;;;;;20865010;28;20247;-58
2021/06/20 07:35:01;;;;;;;10.30;3.95;;;;;;;;;;20870645;28;20298;-60
2021/06/20 07:45:03;;;;;;;3.28;3.08;;;;;;;;;;20886802;28;20219;-62
2021/06/20 07:55:04;;;;;;;6.55;3.60;;;;;;;;;;20867840;28;20215;-61
2021/06/20 08:05:04;;;;;;;7.45;3.28;;;;;;;;;;20883101;28;20223;-57
2021/06/20 08:15:05;;;;;;;3.58;3.38;;;;;;;;;;20890691;28;20219;-58
2021/06/20 08:25:10;;;;;;;3.42;3.05;;;;;;;;;;20884115;28;20223;-59
2021/06/20 08:35:10;;;;;;;3.47;3.22;;;;;;;;;;20901229;28;20530;-57
2021/06/20 08:45:13;;;;;;;3.70;3.40;;;;;;;;;;20877289;28;20216;-57
2021/06/20 08:55:14;;;;;;;6.88;3.55;;;;;;;;;;20905639;28;20700;-57
2021/06/20 09:05:15;;;;;;;3.45;3.25;;;;;;;;;;19809720;22;20313;-53
2021/06/20 09:15:17;;;;;;;4.20;3.28;;;;;;;;;;20665118;28;20272;-54
2021/06/20 09:25:24;;;;;;;6.63;3.40;;;;;;;;;;20658169;28;20256;-65
2021/06/20 09:35:25;;;;;;;3.33;3.03;;;;;;;;;;20631331;28;20279;-54
2021/06/20 09:45:26;;;;;;;3.08;2.83;;;;;;;;;;20648910;28;20315;-53
2021/06/20 09:55:27;;;;;;;2.70;2.55;;;;;;;;;;20636557;28;20264;-53
2021/06/20 10:05:27;;;;;;;2.80;2.60;;;;;;;;;;20640180;28;20221;-53
2021/06/20 10:15:28;;;;;;;3.15;2.30;;;;;;;;;;20643164;28;20209;-58
2021/06/20 10:25:30;;;;;;;2.63;2.42;;;;;;;;;;20629951;28;20228;-62
2021/06/20 10:35:30;;;;;;;3.10;2.80;;;;;;;;;;20647544;28;20299;-54
2021/06/20 10:45:35;;;;;;;4.35;2.80;;;;;;;;;;20624761;28;20226;-53
2021/06/20 10:55:55;;;;;;;3.05;2.78;;;;;;;;;;20647114;28;20205;-53
2021/06/20 11:05:56;;;;;;;2.58;2.42;;;;;;;;;;20624433;28;20312;-54
2021/06/20 11:16:04;;;;;;;3.20;3.00;;;;;;;;;;20645781;28;20209;-54
2021/06/20 11:26:04;;;;;;;3.15;2.70;;;;;;;;;;20629404;28;20301;-54
2021/06/20 11:36:05;;;;;;;2.50;2.40;;;;;;;;;;20651120;28;20296;-53
2021/06/20 11:46:21;;;;;;;3.10;2.90;;;;;;;;;;20652175;28;20226;-54
2021/06/20 11:56:28;;;;;;;3.30;3.08;;;;;;;;;;20645075;28;20615;-56
2021/06/20 12:06:28;;;;;;;3.60;2.90;;;;;;;;;;20658271;28;20759;-54
2021/06/20 12:16:29;;;;;;;3.35;3.05;;;;;;;;;;20635092;28;20365;-65
2021/06/20 12:26:30;;;;;;;5.60;3.17;;;;;;;;;;20657286;28;20720;-55
2021/06/20 12:36:31;;;;;;;4.82;2.83;;;;;;;;;;20633933;28;20569;-54
2021/06/20 12:46:32;;;;;;;3.72;3.08;;;;;;;;;;20655002;28;20232;-64
2021/06/20 12:56:33;;;;;;;3.33;2.70;;;;;;;;;;20638156;28;20217;-54
2021/06/20 13:06:33;;;;;;;3.58;2.65;;;;;;;;;;20648491;28;20226;-54
2021/06/20 13:16:34;;;;;;;3.65;2.92;;;;;;;;;;20644794;28;20213;-53
2021/06/20 13:26:34;;;;;;;3.30;3.00;;;;;;;;;;20638842;28;20245;-58
2021/06/20 13:36:35;;;;;;;4.15;3.17;;;;;;;;;;20652050;28;20244;-58
2021/06/20 13:46:35;;;;;;;14.30;3.97;;;;;;;;;;20629169;28;20267;-54
2021/06/20 13:56:36;;;;;;;3.38;2.95;;;;;;;;;;20650433;28;20214;-53
2021/06/20 14:06:37;;;;;;;2.88;2.67;;;;;;;;;;20632379;28;20717;-54
2021/06/20 14:16:37;;;;;;;3.13;2.50;;;;;;;;;;20648593;28;20209;-53
2021/06/20 14:26:38;;;;;;;4.55;2.83;;;;;;;;;;20565720;28;20226;-60
2021/06/20 14:36:38;;;;;;;3.30;3.00;;;;;;;;;;20561513;28;20723;-55
2021/06/20 14:46:38;;;;;;;2.92;2.72;;;;;;;;;;20557832;28;20273;-53
2021/06/20 14:56:39;;;;;;;4.13;3.25;;;;;;;;;;20552928;28;20713;-56
2021/06/20 15:06:39;;;;;;;5.00;2.90;;;;;;;;;;20528296;28;20330;-54
2021/06/20 15:16:40;;;;;;;4.18;2.78;;;;;;;;;;20480207;29;20219;-53
2021/06/20 15:26:44;;;;;;;4.88;2.88;;;;;;;;;;20500755;29;20222;-54
2021/06/20 15:36:44;;;;;;;3.45;2.78;;;;;;;;;;20477699;29;20718;-53
2021/06/20 15:46:44;;;;;;;4.05;3.25;;;;;;;;;;20499418;29;20227;-53
2021/06/20 15:56:45;;;;;;;4.38;3.33;;;;;;;;;;20480643;29;20238;-53
2021/06/20 16:06:45;;;;;;;3.20;2.92;;;;;;;;;;20529282;28;20234;-53
2021/06/20 16:16:45;;;;;;;8.20;3.75;;;;;;;;;;20511500;28;20231;-54
2021/06/20 16:26:46;;;;;;;4.07;3.20;;;;;;;;;;20484620;28;20223;-57
2021/06/20 16:36:46;;;;;;;3.58;3.15;;;;;;;;;;20494434;29;20219;-53
2021/06/20 16:46:46;;;;;;;3.50;2.60;;;;;;;;;;20520776;28;20223;-53
2021/06/20 16:56:47;;;;;;;4.50;2.70;;;;;;;;;;20574720;28;20234;-53
2021/06/20 17:06:47;;;;;;;3.72;2.72;;;;;;;;;;20555273;28;20230;-53
2021/06/20 17:16:50;;;;;;;4.50;2.30;;;;;;;;;;20583566;28;20221;-52
2021/06/20 17:26:51;;;;;;;2.75;2.30;;;;;;;;;;20563396;28;20705;-53
2021/06/20 17:36:51;;;;;;;5.10;2.60;;;;;;;;;;20588549;28;20225;-52
2021/06/20 17:46:52;;;;;;;3.63;2.30;;;;;;;;;;20639521;28;20230;-53
2021/06/20 17:56:52;;;;;;;3.30;2.20;;;;;;;;;;20636310;28;20523;-56
2021/06/20 18:06:52;;;;;;;4.28;2.90;;;;;;;;;;20646011;28;20229;-53
2021/06/20 18:16:53;;;;;;;5.57;2.75;;;;;;;;;;20626815;28;20651;-53
2021/06/20 18:26:53;;;;;;;5.90;3.10;;;;;;;;;;20643795;28;20233;-56
2021/06/20 18:36:54;;;;;;;5.15;2.90;;;;;;;;;;20624270;28;20468;-55
2021/06/20 18:46:54;;;;;;;3.00;2.80;;;;;;;;;;20644928;28;20236;-52
2021/06/20 18:56:54;;;;;;;3.28;2.58;;;;;;;;;;20627736;28;20217;-53
2021/06/20 19:06:55;;;;;;;5.65;3.22;;;;;;;;;;20640099;28;20252;-66
2021/06/20 19:16:55;;;;;;;4.97;3.15;;;;;;;;;;20635970;28;20217;-53
2021/06/20 19:26:56;;;;;;;4.60;4.00;;;;;;;;;;20616145;28;20225;-56
2021/06/20 19:36:56;;;;;;;7.77;4.23;;;;;;;;;;20643862;28;20231;-53
2021/06/20 19:46:57;;;;;;;4.23;3.80;;;;;;;;;;20606110;28;20229;-53
2021/06/20 19:56:57;;;;;;;3.80;3.57;;;;;;;;;;20658312;28;20300;-67
2021/06/20 20:06:59;;;;;;;5.33;3.80;;;;;;;;;;20669249;28;20233;-57
2021/06/20 20:16:59;;;;;;;4.00;3.73;;;;;;;;;;20657989;28;20229;-55
2021/06/20 20:27:00;;;;;;;4.27;3.97;;;;;;;;;;20581877;28;20234;-53
2021/06/20 20:37:00;;;;;;;4.03;3.70;;;;;;;;;;20586192;28;20582;-56
2021/06/20 20:47:00;;;;;;;4.20;3.80;;;;;;;;;;20586715;28;20230;-55
2021/06/20 20:57:01;;;;;;;3.83;3.53;;;;;;;;;;20584372;28;20218;-54
2021/06/20 21:07:01;;;;;;;4.53;4.10;;;;;;;;;;20582125;28;20238;-53
2021/06/20 21:17:02;;;;;;;8.13;4.40;;;;;;;;;;20584412;28;20324;-54
2021/06/20 21:27:03;;;;;;;4.57;4.17;;;;;;;;;;20583783;28;20226;-54
2021/06/20 21:37:04;;;;;;;4.60;4.30;;;;;;;;;;20582767;28;20228;-53
2021/06/20 21:47:05;;;;;;;5.00;4.17;;;;;;;;;;20582324;28;20333;-53
2021/06/20 21:57:06;;;;;;;5.50;4.80;;;;;;;;;;20581461;28;20309;-53
2021/06/20 22:07:06;;;;;;;5.50;5.00;;;;;;;;;;20580556;28;20238;-55
2021/06/20 22:17:07;;;;;;;5.80;4.97;;;;;;;;;;20579146;28;20620;-54
2021/06/20 22:27:10;;;;;;;5.37;4.90;;;;;;;;;;20579434;28;20744;-58
2021/06/20 22:37:11;;;;;;;5.07;4.77;;;;;;;;;;20578901;28;20229;-53
2021/06/20 22:47:11;;;;;;;5.57;5.07;;;;;;;;;;20578584;28;20313;-53
2021/06/20 22:57:11;;;;;;;6.07;5.40;;;;;;;;;;20578156;28;20222;-53
2021/06/20 23:07:12;;;;;;;7.67;6.97;;;;;;;;;;20577715;28;20249;-53
2021/06/20 23:17:12;;;;;;;8.00;6.80;;;;;;;;;;20577325;28;20581;-53
2021/06/20 23:27:13;;;;;;;6.90;6.40;;;;;;;;;;20582735;28;20230;-53
2021/06/20 23:37:13;;;;;;;6.97;5.87;;;;;;;;;;20592062;28;20680;-52
2021/06/20 23:47:14;;;;;;;9.30;6.83;;;;;;;;;;20591435;28;20241;-53
2021/06/20 23:57:14;;;;;;;8.10;7.33;;;;;;;;;;20590571;28;20222;-59
